Johannesburg, California
Current Conditions -  °F | °C
As of 9:56 AM on Friday 24 Oct 2014 (Local Time) from KNID Reporting Station
Clear Clear  
Wind Chill: 67°   Ceiling: Unl
Heat Index: 67°   Visibility: 10mi
Dew Point: 25°   Wind: 3mph
Humidity: 21%   Direction: 20°NNE
Pressure: 30.1"   Gusts: NA
Location:  35.37°N, 117.64°W
Report Text: KNID 241656Z 02003KT 10SM CLR 19/M04 A3010 RMK AO2 SLP180 T01941039 $
Loading
Personal Weather Stations






























Interactive Weather Map
Tropical Storm Tracking
New forecast layout! Learn more

10-Day Weather Forecast

Advertisements
Track Severe Weather on mobile